createdAt,value
2023-01-15T00:01:40.118Z,98112.47
2023-01-15T00:04:12.824Z,98101.60
2023-01-15T00:06:44.459Z,98106.03
2023-01-15T00:09:16.395Z,98097.26
2023-01-15T00:11:48.084Z,98094.17
2023-01-15T00:14:19.679Z,98092.79
2023-01-15T00:16:52.668Z,98099.01
2023-01-15T00:19:24.596Z,98084.48
2023-01-15T00:21:56.415Z,98099.27
2023-01-15T00:24:46.739Z,98089.73
2023-01-15T00:27:36.989Z,98086.30
2023-01-15T00:30:12.380Z,98076.52
2023-01-15T00:32:45.148Z,98073.05
2023-01-15T00:35:19.966Z,98079.63
2023-01-15T00:37:52.055Z,98079.99
2023-01-15T00:40:23.740Z,98071.86
2023-01-15T00:42:55.519Z,98065.67
2023-01-15T00:45:27.206Z,98053.84
2023-01-15T00:47:59.002Z,98051.95
2023-01-15T00:50:30.780Z,98034.11
2023-01-15T00:53:03.396Z,98011.88
2023-01-15T00:55:35.013Z,98006.97
2023-01-15T00:58:06.926Z,97996.73
2023-01-15T01:00:38.858Z,97979.40
2023-01-15T01:03:10.699Z,97978.60
2023-01-15T01:05:42.316Z,97975.70
2023-01-15T01:08:16.383Z,97963.89
2023-01-15T01:10:48.241Z,97953.14
2023-01-15T01:13:19.960Z,97938.81
2023-01-15T01:15:51.600Z,97942.05
2023-01-15T01:18:23.354Z,97946.63
2023-01-15T01:20:55.579Z,97949.27
2023-01-15T01:23:27.975Z,97953.08
2023-01-15T01:25:59.664Z,97952.77
2023-01-15T01:28:31.408Z,97966.73
2023-01-15T01:31:07.798Z,97968.55
2023-01-15T01:33:39.511Z,97944.48
2023-01-15T01:36:11.232Z,97917.48
2023-01-15T01:38:42.978Z,97927.66
2023-01-15T01:41:14.550Z,97918.48
2023-01-15T01:44:22.091Z,97915.43
2023-01-15T01:46:54.458Z,97910.44
2023-01-15T01:49:26.872Z,97903.77
2023-01-15T01:52:05.343Z,97915.35
2023-01-15T01:54:38.818Z,97899.14
2023-01-15T01:57:10.783Z,97909.71
2023-01-15T01:59:43.905Z,97909.23
2023-01-15T02:02:19.076Z,97907.70
2023-01-15T02:04:52.769Z,97895.36
2023-01-15T02:07:24.635Z,97884.13
2023-01-15T02:09:56.261Z,97893.31
2023-01-15T02:12:39.214Z,97873.34
2023-01-15T02:15:55.225Z,97872.02
2023-01-15T02:18:40.636Z,97868.70
2023-01-15T02:21:37.460Z,97858.58
2023-01-15T02:24:48.214Z,97860.17
2023-01-15T02:27:42.586Z,97880.20
2023-01-15T02:30:23.630Z,97873.82
2023-01-15T02:33:42.568Z,97866.70
2023-01-15T02:36:40.106Z,97861.48
2023-01-15T02:39:23.530Z,97850.24
2023-01-15T02:42:03.065Z,97850.59
2023-01-15T02:44:45.553Z,97846.38
2023-01-15T02:50:02.713Z,97844.21
2023-01-15T02:52:42.389Z,97833.02
2023-01-15T02:55:32.681Z,97828.58
2023-01-15T02:58:09.934Z,97820.98
2023-01-15T03:00:46.853Z,97814.01
2023-01-15T03:03:36.413Z,97819.81
2023-01-15T03:06:13.618Z,97817.38
2023-01-15T03:08:45.959Z,97807.55
2023-01-15T03:11:20.499Z,97805.14
2023-01-15T03:14:05.257Z,97799.95
2023-01-15T03:16:49.671Z,97797.51
2023-01-15T03:19:24.382Z,97789.67
2023-01-15T03:22:15.946Z,97789.88
2023-01-15T03:24:52.030Z,97795.45
2023-01-15T03:27:24.277Z,97788.31
2023-01-15T03:30:03.187Z,97791.59
2023-01-15T03:32:37.360Z,97791.46
2023-01-15T03:35:47.622Z,97781.75
2023-01-15T03:38:22.500Z,97780.39
2023-01-15T03:40:59.481Z,97791.00
2023-01-15T03:43:49.167Z,97789.44
2023-01-15T03:49:36.628Z,97793.31
2023-01-15T03:52:28.416Z,97788.99
2023-01-15T03:55:06.376Z,97780.95
2023-01-15T03:57:50.895Z,97774.81
2023-01-15T04:00:36.182Z,97776.66
2023-01-15T04:03:10.776Z,97762.90
2023-01-15T04:05:42.572Z,97766.04
2023-01-15T04:08:17.911Z,97761.85
2023-01-15T04:10:59.485Z,97764.73
2023-01-15T04:13:31.742Z,97759.89
2023-01-15T04:16:04.063Z,97759.29
2023-01-15T04:18:35.919Z,97763.11
2023-01-15T04:21:07.482Z,97756.83
2023-01-15T04:23:39.083Z,97762.83
2023-01-15T04:26:10.747Z,97764.63
2023-01-15T04:28:42.888Z,97763.19
2023-01-15T04:31:15.997Z,97763.94
2023-01-15T04:33:47.625Z,97753.98
2023-01-15T04:36:19.606Z,97747.71
2023-01-15T04:38:51.172Z,97742.70
2023-01-15T04:41:41.590Z,97750.02
2023-01-15T04:44:13.269Z,97754.23
2023-01-15T04:46:48.130Z,97750.83
2023-01-15T04:49:19.731Z,97749.13
2023-01-15T04:51:51.337Z,97751.07
2023-01-15T04:54:23.105Z,97747.32
2023-01-15T04:56:55.511Z,97734.98
2023-01-15T04:59:27.791Z,97726.71
2023-01-15T05:02:05.767Z,97733.23
2023-01-15T05:04:38.557Z,97736.11
2023-01-15T05:07:10.373Z,97736.97
2023-01-15T05:09:42.049Z,97735.25
2023-01-15T05:12:13.563Z,97732.38
2023-01-15T05:14:45.185Z,97732.36
2023-01-15T05:17:16.720Z,97727.16
2023-01-15T05:19:48.540Z,97724.35
2023-01-15T05:22:20.122Z,97713.91
2023-01-15T05:24:51.759Z,97720.64
2023-01-15T05:27:23.404Z,97727.48
2023-01-15T05:29:55.078Z,97730.47
2023-01-15T05:32:26.635Z,97719.09
2023-01-15T05:34:58.154Z,97710.25
2023-01-15T05:37:31.763Z,97707.90
2023-01-15T05:40:03.858Z,97708.80
2023-01-15T05:42:35.423Z,97714.41
2023-01-15T05:45:07.664Z,97709.71
2023-01-15T05:47:39.253Z,97714.42
2023-01-15T05:50:11.533Z,97710.90
2023-01-15T05:52:43.172Z,97717.55
2023-01-15T05:55:14.784Z,97709.27
2023-01-15T05:57:46.315Z,97706.27
2023-01-15T06:00:18.524Z,97699.81
2023-01-15T06:02:50.856Z,97698.35
2023-01-15T06:05:22.385Z,97700.84
2023-01-15T06:07:54.016Z,97703.32
2023-01-15T06:10:25.672Z,97702.42
2023-01-15T06:12:57.330Z,97699.91
2023-01-15T06:15:28.961Z,97694.42
2023-01-15T06:18:00.555Z,97699.84
2023-01-15T06:20:32.855Z,97698.59
2023-01-15T06:23:04.497Z,97694.81
2023-01-15T06:25:37.606Z,97691.36
2023-01-15T06:28:11.254Z,97693.71
2023-01-15T06:30:42.804Z,97692.13
2023-01-15T06:33:14.407Z,97691.16
2023-01-15T06:35:46.044Z,97683.63
2023-01-15T06:38:18.074Z,97680.11
2023-01-15T06:41:33.760Z,97677.17
2023-01-15T06:44:28.299Z,97690.31
2023-01-15T06:47:24.643Z,97697.14
2023-01-15T06:49:58.432Z,97691.14
2023-01-15T06:52:30.395Z,97693.00
2023-01-15T06:55:02.161Z,97699.95
2023-01-15T06:57:33.974Z,97700.97
2023-01-15T07:00:07.801Z,97704.20
2023-01-15T07:02:41.452Z,97700.52
2023-01-15T07:05:13.015Z,97705.80
2023-01-15T07:07:44.689Z,97708.88
2023-01-15T07:10:16.621Z,97707.59
2023-01-15T07:12:48.204Z,97705.96
2023-01-15T07:15:19.842Z,97706.73
2023-01-15T07:17:55.215Z,97708.11
2023-01-15T07:20:26.837Z,97697.98
2023-01-15T07:22:58.419Z,97703.17
2023-01-15T07:25:30.053Z,97707.80
2023-01-15T07:28:01.622Z,97703.73
2023-01-15T07:30:33.174Z,97711.91
2023-01-15T07:33:04.716Z,97765.80
2023-01-15T07:35:36.896Z,97772.14
2023-01-15T07:38:08.547Z,97767.02
2023-01-15T07:40:40.223Z,97771.31
2023-01-15T07:43:30.655Z,97767.69
2023-01-15T07:46:20.751Z,97772.44
2023-01-15T07:49:10.933Z,97772.08
2023-01-15T07:51:42.514Z,97777.70
2023-01-15T07:54:14.049Z,97781.30
2023-01-15T07:56:45.948Z,97776.81
2023-01-15T07:59:18.073Z,97784.21
2023-01-15T08:01:49.847Z,97789.80
2023-01-15T08:04:21.596Z,97792.27
2023-01-15T08:06:53.165Z,97790.23
2023-01-15T08:09:25.930Z,97799.10
2023-01-15T08:12:21.384Z,97799.65
2023-01-15T08:15:11.598Z,97803.52
2023-01-15T08:17:46.657Z,97793.73
2023-01-15T08:20:21.668Z,97790.08
2023-01-15T08:22:54.911Z,97800.09
2023-01-15T08:25:26.567Z,97803.98
2023-01-15T08:28:02.632Z,97810.02
2023-01-15T08:30:34.301Z,97814.02
2023-01-15T08:33:06.196Z,97815.73
2023-01-15T08:35:38.251Z,97820.54
2023-01-15T08:38:09.968Z,97822.48
2023-01-15T08:40:59.110Z,97832.30
2023-01-15T08:43:33.456Z,97829.30
2023-01-15T08:46:06.004Z,97829.77
2023-01-15T08:48:37.962Z,97841.04
2023-01-15T08:51:11.309Z,97843.94
2023-01-15T08:53:43.025Z,97837.88
2023-01-15T08:56:21.156Z,97824.71
2023-01-15T08:58:53.173Z,97822.12
2023-01-15T09:01:24.791Z,97833.41
2023-01-15T09:03:57.230Z,97838.65
2023-01-15T09:06:29.270Z,97840.47
2023-01-15T09:09:01.244Z,97848.33
2023-01-15T09:11:33.022Z,97850.87
2023-01-15T09:14:04.760Z,97841.99
2023-01-15T09:16:37.819Z,97834.51
2023-01-15T09:19:10.511Z,97835.42
2023-01-15T09:22:08.471Z,97832.87
2023-01-15T09:24:40.472Z,97841.33
2023-01-15T09:27:12.447Z,97838.51
2023-01-15T09:29:44.305Z,97835.95
2023-01-15T09:32:16.352Z,97844.39
2023-01-15T09:34:48.011Z,97843.67
2023-01-15T09:37:20.258Z,97850.45
2023-01-15T09:39:51.884Z,97842.57
2023-01-15T09:42:29.841Z,97837.30
2023-01-15T09:45:18.805Z,97841.80
2023-01-15T09:47:54.925Z,97837.04
2023-01-15T09:50:46.913Z,97841.70
2023-01-15T09:53:37.433Z,97844.13
2023-01-15T09:56:19.790Z,97848.63
2023-01-15T09:58:52.935Z,97844.85
2023-01-15T10:01:31.722Z,97844.71
2023-01-15T10:04:17.719Z,97842.85
2023-01-15T10:07:00.505Z,97839.92
2023-01-15T10:09:37.776Z,97850.73
2023-01-15T10:12:36.086Z,97847.33
2023-01-15T10:15:13.690Z,97846.64
2023-01-15T10:18:02.488Z,97851.61
2023-01-15T10:20:43.350Z,97849.26
2023-01-15T10:23:21.303Z,97856.75
2023-01-15T10:26:20.716Z,97856.95
2023-01-15T10:29:09.887Z,97853.79
2023-01-15T10:31:51.462Z,97852.17
2023-01-15T10:34:37.046Z,97852.06
2023-01-15T10:37:33.069Z,97848.89
2023-01-15T10:40:26.381Z,97837.66
2023-01-15T10:43:00.746Z,97831.05
2023-01-15T10:45:42.576Z,97827.88
2023-01-15T10:48:20.347Z,97826.07
2023-01-15T10:50:52.710Z,97831.02
2023-01-15T10:53:47.232Z,97828.19
2023-01-15T10:57:04.121Z,97837.44
2023-01-15T10:59:39.458Z,97839.13
2023-01-15T11:02:30.531Z,97840.69
2023-01-15T11:05:03.692Z,97844.83
2023-01-15T11:08:05.192Z,97835.98
2023-01-15T11:10:35.387Z,97843.50
2023-01-15T11:13:34.879Z,97838.24
2023-01-15T11:16:33.432Z,97850.83
2023-01-15T11:19:26.283Z,97858.20
2023-01-15T11:21:58.163Z,97851.51
2023-01-15T11:24:29.912Z,97846.34
2023-01-15T11:27:01.559Z,97844.88
2023-01-15T11:29:39.564Z,97838.75
2023-01-15T11:32:40.820Z,97836.59
2023-01-15T11:35:18.934Z,97831.30
2023-01-15T11:38:01.437Z,97821.98
2023-01-15T11:40:33.958Z,97802.45
2023-01-15T11:43:40.582Z,97795.36
2023-01-15T11:46:47.047Z,97781.23
2023-01-15T11:49:39.861Z,97784.08
2023-01-15T11:52:16.235Z,97788.97
2023-01-15T11:54:53.031Z,97783.84
2023-01-15T11:57:37.745Z,97782.64
2023-01-15T12:00:21.840Z,97780.90
2023-01-15T12:03:02.586Z,97794.07
2023-01-15T12:05:40.598Z,97794.76
2023-01-15T12:08:46.545Z,97787.84
2023-01-15T12:11:33.518Z,97796.81
2023-01-15T12:14:30.616Z,97792.85
2023-01-15T12:17:24.124Z,97793.14
2023-01-15T12:20:02.034Z,97795.77
2023-01-15T12:22:36.589Z,97797.20
2023-01-15T12:25:33.211Z,97801.15
2023-01-15T12:28:17.025Z,97807.33
2023-01-15T12:31:05.389Z,97812.96
2023-01-15T12:33:42.381Z,97815.34
2023-01-15T12:36:23.033Z,97804.77
2023-01-15T12:39:04.345Z,97810.95
2023-01-15T12:41:59.311Z,97809.20
2023-01-15T12:45:01.976Z,97802.64
2023-01-15T12:47:55.163Z,97795.99
2023-01-15T12:50:54.040Z,97794.91
2023-01-15T12:53:46.592Z,97798.20
2023-01-15T12:56:31.434Z,97794.26
2023-01-15T12:59:22.562Z,97804.44
2023-01-15T13:02:11.177Z,97816.81
2023-01-15T13:05:09.280Z,97833.35
2023-01-15T13:07:53.535Z,97842.86
2023-01-15T13:10:27.681Z,97839.87
2023-01-15T13:13:13.806Z,97836.64
2023-01-15T13:16:24.543Z,97837.79
2023-01-15T13:19:35.214Z,97835.83
2023-01-15T13:22:14.880Z,97833.86
2023-01-15T13:24:56.311Z,97832.04
2023-01-15T13:28:06.187Z,97834.73
2023-01-15T13:30:40.928Z,97831.60
2023-01-15T13:33:36.154Z,97838.05
2023-01-15T13:36:22.292Z,97833.02
2023-01-15T13:39:00.621Z,97831.77
2023-01-15T13:41:56.939Z,97829.42
2023-01-15T13:44:36.484Z,97831.27
2023-01-15T13:47:14.277Z,97828.25
2023-01-15T13:49:53.602Z,97830.88
2023-01-15T13:52:31.554Z,97843.95
2023-01-15T13:55:20.021Z,97849.67
2023-01-15T13:57:51.852Z,97834.95
2023-01-15T14:00:31.804Z,97836.05
2023-01-15T14:03:33.630Z,97837.66
2023-01-15T14:06:08.506Z,97832.82
2023-01-15T14:08:46.505Z,97830.79
2023-01-15T14:11:57.172Z,97837.37
2023-01-15T14:14:35.263Z,97836.48
2023-01-15T14:17:25.708Z,97859.46
2023-01-15T14:20:36.073Z,97866.30
2023-01-15T14:23:58.834Z,97864.27
